Time;durP1;ratioP1;P1;durP2;ratioP2;P2;SDS_P1;SDS_P2;PMS_P1;PMS_P2;Temp;Humidity;BMP_temperature;BMP_pressure;BME280_temperature;BME280_humidity;BME280_pressure;Samples;Min_cycle;Max_cycle;Signal;HPM_P1;HPM_P2
2022/01/26 00:06:42;;;;;;;20.65;12.43;;;16.50;52.80;;;;;;5113698;28;20073;-75
2022/01/26 00:09:09;;;;;;;17.02;11.90;;;16.50;52.70;;;;;;5113690;28;20050;-75
2022/01/26 00:11:36;;;;;;;18.55;12.18;;;16.50;52.70;;;;;;5113371;28;20028;-75
2022/01/26 00:14:04;;;;;;;18.98;12.32;;;16.40;52.60;;;;;;5113642;28;20031;-75
2022/01/26 00:16:42;;;;;;;20.48;12.77;;;16.50;52.60;;;;;;5113302;28;20022;-75
2022/01/26 00:19:16;;;;;;;21.17;13.07;;;16.50;52.60;;;;;;5113497;28;20382;-75
2022/01/26 00:27:02;;;;;;;18.55;12.50;;;16.50;52.50;;;;;;5113227;28;20032;-75
2022/01/26 00:29:24;;;;;;;21.80;13.65;;;16.40;52.40;;;;;;5115004;27;20038;-75
2022/01/26 00:33:06;;;;;;;19.92;12.85;;;16.50;52.50;;;;;;5126542;27;20023;-75
2022/01/26 00:40:38;;;;;;;19.73;13.00;;;16.50;52.30;;;;;;5119374;27;20039;-75
2022/01/26 00:43:20;;;;;;;21.23;14.23;;;16.50;52.30;;;;;;5133623;27;20041;-76
2022/01/26 00:45:49;;;;;;;23.08;13.43;;;16.50;52.30;;;;;;5114879;27;20436;-75
2022/01/26 00:48:20;;;;;;;20.83;13.15;;;16.50;52.20;;;;;;5133243;27;20015;-75
2022/01/26 00:50:50;;;;;;;20.23;13.35;;;16.50;52.20;;;;;;5133381;27;20031;-75
2022/01/26 00:53:16;;;;;;;20.20;13.30;;;16.50;52.20;;;;;;5132984;27;20069;-75
2022/01/26 00:55:42;;;;;;;19.70;13.02;;;16.50;52.10;;;;;;5133464;27;20023;-75
2022/01/26 00:58:08;;;;;;;21.63;14.48;;;16.50;52.10;;;;;;5133219;27;20547;-75
2022/01/26 01:00:34;;;;;;;20.80;14.43;;;16.50;52.10;;;;;;5117874;27;20817;-75
2022/01/26 01:03:01;;;;;;;19.45;13.45;;;16.50;52.10;;;;;;5112398;28;20082;-75
2022/01/26 01:05:34;;;;;;;19.73;13.25;;;16.50;52.10;;;;;;5112307;28;20023;-75
2022/01/26 01:08:05;;;;;;;24.25;13.50;;;16.50;52.10;;;;;;5112532;28;20027;-75
2022/01/26 01:10:31;;;;;;;18.70;11.70;;;16.50;52.00;;;;;;5111949;28;20479;-75
2022/01/26 01:12:59;;;;;;;19.55;12.57;;;16.50;52.10;;;;;;5111996;28;20107;-75
2022/01/26 01:15:26;;;;;;;18.98;13.13;;;16.50;52.10;;;;;;5112156;28;20027;-75
2022/01/26 01:18:02;;;;;;;19.70;12.80;;;16.50;52.00;;;;;;5112351;28;20098;-75
2022/01/26 01:29:15;;;;;;;21.65;13.73;;;16.50;52.00;;;;;;5111846;28;20388;-75
2022/01/26 01:31:16;;;;;;;22.35;14.27;;;16.60;52.10;;;;;;5121432;27;20144;-75
2022/01/26 01:33:47;;;;;;;20.40;13.70;;;16.60;52.10;;;;;;5132875;27;20088;-75
2022/01/26 01:36:13;;;;;;;19.15;12.60;;;16.60;52.10;;;;;;5133060;27;20100;-74
2022/01/26 01:38:41;;;;;;;18.15;12.07;;;16.60;52.10;;;;;;5132316;27;20024;-74
2022/01/26 01:41:08;;;;;;;21.23;13.70;;;16.60;52.00;;;;;;5131808;27;20157;-75
2022/01/26 01:43:34;;;;;;;21.52;14.25;;;16.60;52.10;;;;;;5132205;27;20555;-75
2022/01/26 01:46:00;;;;;;;20.38;13.40;;;16.60;52.20;;;;;;5132420;27;20027;-75
2022/01/26 01:48:30;;;;;;;17.23;12.85;;;16.60;52.30;;;;;;5132150;27;20368;-75
2022/01/26 01:50:58;;;;;;;20.27;13.30;;;16.70;52.70;;;;;;5132415;27;20061;-75
2022/01/26 01:53:33;;;;;;;20.35;13.50;;;16.70;53.00;;;;;;5132055;27;20035;-75
2022/01/26 01:56:00;;;;;;;20.10;13.77;;;16.70;53.40;;;;;;5132416;27;20054;-75
2022/01/26 01:58:26;;;;;;;17.05;12.48;;;16.70;53.40;;;;;;5132123;27;20027;-75
2022/01/26 02:00:52;;;;;;;18.38;12.73;;;16.70;53.50;;;;;;5112451;28;20059;-75
2022/01/26 02:03:18;;;;;;;18.52;13.13;;;16.70;53.60;;;;;;5111242;28;20066;-75
2022/01/26 02:05:43;;;;;;;20.13;13.45;;;16.70;54.40;;;;;;5111880;28;20076;-75
2022/01/26 02:08:09;;;;;;;22.00;12.73;;;16.80;54.00;;;;;;5111725;28;20031;-74
2022/01/26 02:10:36;;;;;;;19.58;12.45;;;16.80;55.30;;;;;;5111469;28;20057;-75
2022/01/26 02:13:09;;;;;;;19.77;12.93;;;16.80;55.80;;;;;;5111652;28;20020;-75
2022/01/26 02:15:39;;;;;;;20.90;13.15;;;16.80;57.30;;;;;;5111495;28;20107;-75
2022/01/26 03:04:53;;;;;;;20.67;14.40;;;16.70;51.20;;;;;;5114509;28;20039;-75
2022/01/26 03:07:23;;;;;;;;;;;16.80;51.80;;;;;;5114787;28;20043;-75
2022/01/26 03:10:03;;;;;;;21.05;13.80;;;16.80;51.70;;;;;;5113573;28;19952;-75
2022/01/26 03:12:32;;;;;;;18.20;12.70;;;16.90;51.80;;;;;;5113184;28;20081;-75
2022/01/26 03:15:02;;;;;;;19.52;13.57;;;16.90;51.70;;;;;;5114733;28;20891;-75
2022/01/26 03:17:58;;;;;;;23.65;15.00;;;16.90;51.70;;;;;;5114495;28;20034;-75
2022/01/26 03:20:25;;;;;;;19.80;13.18;;;16.90;51.70;;;;;;5114268;28;20028;-75
2022/01/26 03:29:11;;;;;;;20.55;14.95;;;16.90;51.60;;;;;;5114305;28;20034;-75
2022/01/26 03:33:56;;;;;;;20.48;14.05;;;16.90;51.60;;;;;;5114597;28;20035;-75
2022/01/26 03:36:25;;;;;;;21.15;14.45;;;16.90;51.60;;;;;;5113316;28;20039;-75
2022/01/26 03:38:59;;;;;;;21.67;14.50;;;16.90;51.60;;;;;;5114280;28;20058;-75
2022/01/26 03:41:47;;;;;;;21.10;13.93;;;16.90;51.50;;;;;;5113766;28;20023;-75
2022/01/26 03:44:13;;;;;;;19.38;13.20;;;16.90;51.60;;;;;;5114513;28;20023;-75
2022/01/26 03:46:41;;;;;;;19.55;13.38;;;16.90;51.60;;;;;;5114427;28;20034;-75
2022/01/26 03:49:08;;;;;;;18.13;13.02;;;16.90;51.60;;;;;;5114075;28;20036;-75
2022/01/26 03:51:34;;;;;;;20.52;14.02;;;16.90;51.60;;;;;;5113796;28;20358;-75
2022/01/26 03:54:00;;;;;;;19.75;13.98;;;16.90;51.60;;;;;;5113962;28;20023;-75
2022/01/26 03:56:26;;;;;;;22.65;14.88;;;16.90;51.60;;;;;;5113518;28;20424;-75
2022/01/26 03:58:52;;;;;;;20.00;13.73;;;16.90;51.60;;;;;;5120156;27;20106;-75
2022/01/26 04:01:18;;;;;;;20.80;14.00;;;16.90;51.60;;;;;;5133559;27;20027;-75
2022/01/26 04:03:44;;;;;;;20.80;13.57;;;16.90;51.50;;;;;;5133585;27;20035;-75
2022/01/26 04:06:11;;;;;;;21.58;13.85;;;16.90;51.50;;;;;;5134656;27;20107;-74
2022/01/26 04:08:39;;;;;;;20.25;14.30;;;17.00;51.60;;;;;;5134022;27;20068;-76
2022/01/26 04:11:29;;;;;;;20.73;13.75;;;16.90;51.50;;;;;;5134295;27;20023;-75
2022/01/26 04:13:54;;;;;;;19.58;13.32;;;16.90;51.50;;;;;;5133930;27;20023;-76
2022/01/26 04:16:21;;;;;;;20.48;13.35;;;16.90;51.50;;;;;;5133914;27;20034;-75
2022/01/26 04:18:47;;;;;;;18.45;13.52;;;17.00;51.50;;;;;;5134071;27;20031;-75
2022/01/26 04:26:11;;;;;;;20.23;13.73;;;17.00;51.50;;;;;;5134363;27;20046;-74
2022/01/26 04:28:43;;;;;;;21.00;14.18;;;16.90;51.40;;;;;;5129191;27;20035;-75
2022/01/26 04:31:09;;;;;;;20.65;13.85;;;17.00;51.50;;;;;;5113272;28;20024;-75
2022/01/26 04:33:36;;;;;;;17.67;13.07;;;17.00;51.40;;;;;;5112921;28;20027;-75
2022/01/26 04:36:06;;;;;;;20.45;14.15;;;17.00;51.40;;;;;;5113016;28;20020;-75
2022/01/26 04:38:44;;;;;;;18.48;13.48;;;17.00;51.40;;;;;;5112922;28;20027;-75
2022/01/26 04:43:39;;;;;;;20.60;14.43;;;17.00;51.50;;;;;;5112771;28;20035;-75
2022/01/26 04:46:06;;;;;;;19.77;14.52;;;17.00;51.40;;;;;;5112920;28;20035;-75
2022/01/26 04:48:32;;;;;;;19.98;14.25;;;17.00;51.50;;;;;;5110437;28;20032;-75
2022/01/26 04:50:57;;;;;;;20.80;14.52;;;17.00;51.50;;;;;;5112773;28;20019;-75
2022/01/26 04:53:23;;;;;;;19.80;13.20;;;17.00;51.50;;;;;;5112559;28;20029;-75
2022/01/26 04:55:49;;;;;;;20.83;14.38;;;17.00;51.50;;;;;;5112830;28;20030;-75
2022/01/26 04:58:15;;;;;;;19.67;14.35;;;17.00;51.40;;;;;;5112428;27;20077;-75
2022/01/26 05:00:41;;;;;;;18.77;12.73;;;17.00;51.40;;;;;;5133199;27;20038;-75
2022/01/26 05:03:06;;;;;;;18.67;13.20;;;17.00;51.40;;;;;;5132860;27;20035;-75
2022/01/26 05:05:32;;;;;;;20.30;13.95;;;17.00;51.50;;;;;;5132838;27;20026;-75
2022/01/26 05:07:57;;;;;;;18.98;13.57;;;17.00;51.40;;;;;;5133010;27;20054;-75
2022/01/26 05:10:23;;;;;;;19.10;13.27;;;17.00;51.50;;;;;;5132730;27;20094;-75
2022/01/26 05:12:49;;;;;;;20.55;15.13;;;17.00;51.40;;;;;;5132951;27;20030;-76
2022/01/26 05:15:15;;;;;;;20.20;13.63;;;17.00;51.40;;;;;;5132962;27;20027;-75
2022/01/26 05:17:41;;;;;;;19.20;13.48;;;17.00;51.40;;;;;;5133104;27;20106;-75
2022/01/26 05:20:09;;;;;;;21.27;14.80;;;17.00;51.40;;;;;;5132914;27;20046;-76
2022/01/26 05:22:38;;;;;;;20.40;14.68;;;17.00;51.40;;;;;;5114027;27;20107;-75
2022/01/26 05:25:04;;;;;;;19.98;13.60;;;17.00;51.40;;;;;;5132889;27;20050;-75
2022/01/26 05:27:30;;;;;;;20.27;14.15;;;17.00;51.40;;;;;;5132530;27;20019;-76
2022/01/26 05:29:55;;;;;;;20.60;14.25;;;17.00;51.40;;;;;;5115625;27;20057;-75
2022/01/26 05:32:21;;;;;;;19.88;13.75;;;17.00;51.40;;;;;;5132405;27;20024;-75
2022/01/26 05:34:47;;;;;;;19.15;14.32;;;17.00;51.40;;;;;;5132616;27;20031;-75
2022/01/26 05:37:12;;;;;;;21.15;15.10;;;17.00;51.40;;;;;;5132861;27;20023;-75
2022/01/26 05:39:38;;;;;;;20.42;14.25;;;17.00;51.40;;;;;;5132453;27;20019;-74
2022/01/26 05:42:06;;;;;;;20.45;14.88;;;17.00;51.40;;;;;;5132453;27;20023;-74
2022/01/26 05:44:31;;;;;;;20.17;13.93;;;17.00;51.40;;;;;;5132069;27;20035;-75
2022/01/26 05:46:57;;;;;;;19.58;14.32;;;17.00;51.40;;;;;;5132522;27;20018;-75
2022/01/26 05:49:23;;;;;;;20.08;14.35;;;17.00;51.40;;;;;;5132404;27;20057;-75
2022/01/26 05:51:50;;;;;;;22.02;14.63;;;17.00;51.40;;;;;;5132353;27;20029;-75
2022/01/26 05:54:16;;;;;;;20.05;14.32;;;17.00;51.40;;;;;;5132210;27;20072;-75
2022/01/26 05:56:44;;;;;;;20.58;14.50;;;17.00;51.40;;;;;;5132666;27;20019;-75
2022/01/26 05:59:10;;;;;;;20.13;14.77;;;17.00;51.40;;;;;;5131468;27;20027;-75
2022/01/26 06:01:36;;;;;;;20.02;13.93;;;17.00;51.40;;;;;;5130037;27;20513;-73
2022/01/26 06:04:02;;;;;;;23.02;15.27;;;17.00;51.30;;;;;;5131548;27;20035;-73
2022/01/26 06:06:28;;;;;;;21.17;14.02;;;17.00;51.40;;;;;;5131999;27;20106;-74
2022/01/26 06:08:53;;;;;;;20.90;14.02;;;17.00;51.30;;;;;;5113545;28;20102;-73
2022/01/26 06:11:19;;;;;;;20.25;15.05;;;17.00;51.30;;;;;;5131941;28;20019;-73
2022/01/26 06:13:45;;;;;;;18.77;12.73;;;16.90;51.30;;;;;;5132057;28;20034;-74
2022/01/26 06:16:10;;;;;;;20.48;14.02;;;17.00;51.30;;;;;;5132379;27;20027;-74
2022/01/26 06:18:36;;;;;;;18.55;13.68;;;17.00;51.30;;;;;;5131858;27;20098;-74
2022/01/26 06:21:02;;;;;;;20.88;14.77;;;16.90;51.30;;;;;;5132107;28;20019;-75
2022/01/26 06:23:28;;;;;;;21.10;15.23;;;16.90;51.30;;;;;;5131670;27;20034;-75
2022/01/26 06:25:55;;;;;;;20.33;14.57;;;16.90;51.30;;;;;;5132134;28;20032;-74
2022/01/26 06:28:23;;;;;;;21.13;14.32;;;16.90;51.30;;;;;;5127905;28;20028;-76
2022/01/26 06:30:52;;;;;;;20.33;13.95;;;16.90;51.30;;;;;;5118954;28;20039;-76
2022/01/26 06:33:18;;;;;;;20.75;14.27;;;16.90;51.40;;;;;;5131755;27;20410;-76
2022/01/26 06:35:44;;;;;;;20.27;14.18;;;16.90;51.40;;;;;;5132059;28;20376;-76
2022/01/26 06:38:10;;;;;;;20.05;14.15;;;16.90;51.40;;;;;;5132187;27;20065;-75
2022/01/26 06:40:36;;;;;;;20.88;14.45;;;16.90;51.40;;;;;;5131690;28;20031;-75
2022/01/26 06:43:07;;;;;;;20.63;14.30;;;16.90;51.40;;;;;;5131856;27;20032;-74
2022/01/26 06:45:37;;;;;;;22.42;15.27;;;16.90;51.40;;;;;;5131577;27;20035;-75
2022/01/26 06:50:47;;;;;;;18.85;13.38;;;16.90;51.60;;;;;;5131998;28;20091;-74
2022/01/26 06:53:13;;;;;;;19.95;13.13;;;16.90;51.80;;;;;;5132202;27;20015;-75
2022/01/26 06:55:39;;;;;;;19.05;13.27;;;16.90;52.00;;;;;;5131983;28;20489;-74
2022/01/26 06:58:05;;;;;;;20.40;13.50;;;16.90;52.10;;;;;;5127777;28;20020;-74
2022/01/26 07:00:31;;;;;;;22.65;13.55;;;16.90;52.40;;;;;;5111057;28;20387;-75
2022/01/26 07:02:57;;;;;;;24.15;13.70;;;16.90;52.90;;;;;;5110967;28;20039;-74
2022/01/26 07:05:23;;;;;;;20.50;13.98;;;16.90;53.20;;;;;;5110953;28;20027;-75
2022/01/26 07:07:49;;;;;;;21.08;13.18;;;16.90;53.30;;;;;;5110042;28;20383;-75
2022/01/26 07:10:15;;;;;;;23.35;14.25;;;16.90;53.30;;;;;;5111088;28;20610;-75
2022/01/26 07:12:41;;;;;;;21.27;14.98;;;16.90;53.30;;;;;;5115125;28;20073;-75
2022/01/26 07:23:08;;;;;;;21.58;13.30;;;17.00;54.10;;;;;;5134981;27;20051;-75
2022/01/26 07:25:34;;;;;;;20.35;14.43;;;17.00;54.20;;;;;;5134868;27;20436;-75
2022/01/26 07:28:03;;;;;;;18.90;13.20;;;17.00;54.50;;;;;;5116567;27;20015;-75
2022/01/26 07:30:31;;;;;;;22.05;14.95;;;17.00;54.40;;;;;;5134800;27;20080;-75
2022/01/26 07:32:56;;;;;;;23.55;14.43;;;17.00;54.80;;;;;;5134932;27;20030;-74
2022/01/26 07:35:22;;;;;;;21.25;13.90;;;17.10;55.00;;;;;;5116272;27;20023;-74
2022/01/26 07:37:48;;;;;;;20.10;14.30;;;17.10;55.20;;;;;;5116327;27;20122;-74
2022/01/26 07:40:14;;;;;;;24.48;16.25;;;17.10;55.50;;;;;;5131735;27;20110;-75
2022/01/26 07:42:40;;;;;;;20.55;13.65;;;17.10;55.50;;;;;;5135098;27;20124;-74
2022/01/26 07:45:09;;;;;;;20.52;14.02;;;17.10;55.50;;;;;;5116393;27;20038;-73
2022/01/26 07:47:36;;;;;;;20.90;14.48;;;17.10;55.60;;;;;;5132821;27;20027;-74
2022/01/26 07:50:06;;;;;;;21.10;14.77;;;17.10;55.40;;;;;;5133929;27;20091;-76
2022/01/26 07:52:36;;;;;;;21.00;14.40;;;17.10;55.40;;;;;;5115834;27;20019;-75
2022/01/26 07:55:02;;;;;;;21.45;15.43;;;17.10;55.20;;;;;;5134607;27;20019;-75
2022/01/26 07:57:27;;;;;;;20.13;14.15;;;17.10;55.00;;;;;;5133121;27;20019;-76
2022/01/26 07:59:53;;;;;;;20.17;14.90;;;17.10;54.90;;;;;;5132037;27;20027;-75
2022/01/26 08:02:21;;;;;;;21.35;15.27;;;17.10;54.90;;;;;;5113079;27;20029;-74
2022/01/26 08:04:47;;;;;;;23.75;14.73;;;17.00;54.60;;;;;;5130889;27;20503;-75
2022/01/26 08:07:12;;;;;;;23.92;15.18;;;17.10;54.50;;;;;;5122856;27;20106;-75
2022/01/26 08:09:43;;;;;;;22.70;14.60;;;17.10;54.50;;;;;;5130769;27;20436;-75
2022/01/26 08:12:14;;;;;;;22.48;14.85;;;17.00;54.30;;;;;;5121833;27;20100;-74
2022/01/26 08:14:41;;;;;;;21.58;15.45;;;17.00;54.20;;;;;;5127736;27;20031;-74
2022/01/26 08:17:07;;;;;;;22.90;15.50;;;17.00;54.20;;;;;;5133721;27;20027;-73
2022/01/26 08:19:33;;;;;;;22.90;15.35;;;17.00;54.10;;;;;;5133767;27;20478;-73
2022/01/26 08:22:01;;;;;;;23.30;15.73;;;17.00;54.10;;;;;;5133958;27;20106;-75
2022/01/26 08:24:28;;;;;;;22.50;15.30;;;17.00;54.50;;;;;;5133625;27;20035;-75
2022/01/26 08:26:55;;;;;;;22.17;15.07;;;16.90;53.90;;;;;;5133860;27;20047;-74
2022/01/26 08:29:36;;;;;;;21.75;15.02;;;16.90;53.90;;;;;;5129583;27;20023;-74
2022/01/26 08:32:01;;;;;;;22.85;15.73;;;16.90;53.90;;;;;;5121448;27;20103;-74
2022/01/26 08:34:27;;;;;;;26.00;16.92;;;16.90;53.90;;;;;;5121176;27;20102;-75
2022/01/26 08:36:52;;;;;;;22.80;15.90;;;16.90;54.00;;;;;;5122729;27;20106;-75
2022/01/26 08:39:18;;;;;;;25.08;15.45;;;16.90;54.00;;;;;;5120656;27;20016;-74
2022/01/26 08:41:44;;;;;;;24.55;15.88;;;16.90;54.00;;;;;;5121701;27;20019;-73
2022/01/26 08:44:10;;;;;;;24.27;15.05;;;16.90;54.00;;;;;;5122576;27;20105;-73
2022/01/26 08:46:36;;;;;;;25.50;16.05;;;16.90;54.00;;;;;;5119876;27;20436;-75
2022/01/26 08:49:03;;;;;;;23.92;15.63;;;16.80;54.00;;;;;;5117326;27;20036;-74
2022/01/26 08:51:29;;;;;;;23.23;15.10;;;16.80;54.00;;;;;;5112422;28;20387;-74
2022/01/26 08:53:54;;;;;;;23.02;15.30;;;16.80;54.00;;;;;;5112862;28;20035;-73
2022/01/26 08:56:20;;;;;;;22.65;15.48;;;16.80;54.00;;;;;;5120379;27;20023;-74
2022/01/26 08:58:46;;;;;;;24.48;15.60;;;16.80;54.00;;;;;;5132634;27;20538;-74
2022/01/26 09:01:12;;;;;;;22.80;14.90;;;16.70;53.90;;;;;;5126029;27;20019;-73
2022/01/26 09:03:41;;;;;;;21.83;14.77;;;16.70;53.90;;;;;;5130855;27;20027;-74
2022/01/26 09:06:07;;;;;;;22.27;15.55;;;16.70;54.00;;;;;;5133166;27;20102;-74
2022/01/26 09:08:34;;;;;;;23.10;15.65;;;16.60;53.90;;;;;;5132855;27;20030;-74
2022/01/26 09:11:01;;;;;;;24.15;16.13;;;16.60;53.90;;;;;;5132947;27;20026;-74
2022/01/26 09:13:32;;;;;;;26.05;16.13;;;16.60;53.90;;;;;;5114238;27;20031;-74
2022/01/26 09:16:01;;;;;;;22.52;15.13;;;16.60;53.90;;;;;;5132980;27;20016;-74
2022/01/26 09:18:54;;;;;;;24.60;16.42;;;16.60;53.90;;;;;;5132062;27;20063;-73
2022/01/26 09:21:16;;;;;;;22.48;15.40;;;16.60;53.90;;;;;;5131992;27;20035;-74
2022/01/26 09:23:42;;;;;;;24.77;15.90;;;16.50;53.80;;;;;;5114485;27;20027;-73
2022/01/26 09:26:08;;;;;;;23.25;15.55;;;16.50;53.90;;;;;;5132783;27;20493;-74
2022/01/26 09:28:33;;;;;;;24.73;15.57;;;16.50;53.80;;;;;;5132505;27;20485;-74
2022/01/26 09:30:59;;;;;;;20.77;14.75;;;16.50;53.80;;;;;;5132747;27;20098;-74
2022/01/26 09:33:24;;;;;;;22.10;14.45;;;16.50;53.80;;;;;;5132020;27;20027;-74
2022/01/26 09:35:50;;;;;;;21.10;14.77;;;16.40;53.80;;;;;;5132783;27;20034;-74
2022/01/26 09:38:17;;;;;;;24.25;15.70;;;16.40;53.90;;;;;;5113770;27;20034;-75
2022/01/26 09:40:43;;;;;;;24.13;16.10;;;16.40;53.80;;;;;;5132991;27;20059;-75
2022/01/26 09:43:10;;;;;;;23.38;16.17;;;16.40;53.90;;;;;;5132665;27;20068;-74
2022/01/26 09:45:36;;;;;;;23.95;15.38;;;16.40;53.90;;;;;;5132331;27;20027;-75
2022/01/26 09:48:03;;;;;;;24.67;15.60;;;16.40;53.80;;;;;;5110093;28;20034;-75
2022/01/26 09:50:29;;;;;;;22.83;15.40;;;16.40;53.90;;;;;;5111634;28;20035;-75
2022/01/26 09:52:56;;;;;;;22.83;15.80;;;16.40;53.90;;;;;;5111923;28;20027;-76
2022/01/26 09:55:22;;;;;;;21.58;14.48;;;16.40;53.80;;;;;;5111592;28;20027;-75
2022/01/26 09:57:48;;;;;;;21.45;14.48;;;16.30;53.80;;;;;;5111756;28;20023;-75
2022/01/26 10:00:14;;;;;;;21.30;14.65;;;16.30;53.80;;;;;;5111967;28;20028;-75
2022/01/26 10:02:43;;;;;;;22.88;14.95;;;16.30;53.70;;;;;;5111810;28;20038;-75
2022/01/26 10:05:12;;;;;;;22.05;15.23;;;16.30;53.70;;;;;;5111900;28;20475;-75
2022/01/26 10:07:53;;;;;;;20.40;14.45;;;16.30;53.70;;;;;;5111541;28;20016;-74
2022/01/26 10:15:25;;;;;;;22.38;15.13;;;16.30;53.70;;;;;;5112460;28;20038;-74
2022/01/26 10:18:56;;;;;;;23.05;14.65;;;16.30;53.60;;;;;;5093756;28;20399;-75
2022/01/26 10:21:23;;;;;;;19.55;13.65;;;16.30;53.50;;;;;;5111520;28;20368;-75
2022/01/26 10:23:49;;;;;;;20.00;13.65;;;16.30;53.50;;;;;;5111473;28;20036;-75
2022/01/26 10:26:19;;;;;;;18.63;13.20;;;16.30;53.50;;;;;;5092813;28;20028;-75
2022/01/26 10:28:48;;;;;;;19.90;13.38;;;16.30;53.50;;;;;;5111565;28;20382;-75
2022/01/26 10:31:16;;;;;;;21.15;13.48;;;16.30;53.50;;;;;;5111196;28;20095;-75
2022/01/26 10:34:07;;;;;;;18.90;13.55;;;16.30;53.40;;;;;;5111734;28;20024;-76
2022/01/26 10:36:35;;;;;;;17.10;12.05;;;16.30;53.40;;;;;;5111147;28;20030;-75
2022/01/26 10:39:08;;;;;;;19.75;13.32;;;16.30;53.40;;;;;;5113889;28;20020;-75
2022/01/26 10:41:38;;;;;;;17.25;12.00;;;16.30;53.40;;;;;;5131216;28;20061;-76
2022/01/26 10:44:06;;;;;;;15.38;11.07;;;16.30;53.40;;;;;;5131873;27;20084;-75
2022/01/26 10:46:37;;;;;;;17.85;12.63;;;16.20;53.30;;;;;;5134104;27;20023;-74
2022/01/26 10:54:36;;;;;;;17.75;11.77;;;16.20;53.30;;;;;;5136153;27;20035;-74
2022/01/26 10:57:08;;;;;;;16.83;10.98;;;16.20;53.30;;;;;;5135645;27;20023;-75
2022/01/26 10:59:38;;;;;;;16.23;12.15;;;16.20;53.30;;;;;;5135579;27;20570;-74
2022/01/26 11:02:11;;;;;;;17.98;11.07;;;16.20;53.30;;;;;;5102423;28;20549;-74
2022/01/26 11:04:41;;;;;;;15.38;10.13;;;16.30;53.30;;;;;;5114691;28;20028;-74
2022/01/26 11:07:10;;;;;;;16.38;10.68;;;16.20;53.20;;;;;;5096580;28;20360;-75
2022/01/26 11:09:39;;;;;;;16.02;10.38;;;16.30;53.20;;;;;;5114672;27;20241;-74
2022/01/26 11:12:07;;;;;;;16.17;10.63;;;16.20;53.10;;;;;;5127318;27;20514;-75
2022/01/26 11:14:49;;;;;;;17.30;11.60;;;16.20;53.10;;;;;;5135019;27;20068;-77
2022/01/26 11:17:37;;;;;;;18.88;11.02;;;16.30;53.10;;;;;;5134777;27;20027;-79
2022/01/26 11:20:33;;;;;;;14.55;10.65;;;16.30;53.10;;;;;;5129764;27;20027;-76
2022/01/26 11:23:04;;;;;;;13.98;9.52;;;16.40;53.70;;;;;;5135076;27;20015;-75
2022/01/26 11:25:43;;;;;;;17.67;9.57;;;16.60;53.20;;;;;;5135017;27;20037;-77
2022/01/26 11:28:20;;;;;;;12.43;8.25;;;16.70;52.90;;;;;;5135453;27;20352;-76
2022/01/26 11:30:46;;;;;;;14.48;8.70;;;16.90;52.70;;;;;;5134918;27;20055;-79
2022/01/26 11:33:15;;;;;;;11.27;8.25;;;17.10;52.40;;;;;;5135243;27;20034;-78
2022/01/26 11:35:46;;;;;;;14.13;9.32;;;17.30;52.30;;;;;;5135185;27;20026;-78
2022/01/26 11:47:20;;;;;;;14.32;8.23;;;17.40;53.60;;;;;;5071079;27;20087;-76
2022/01/26 11:49:46;;;;;;;12.25;8.07;;;17.40;54.40;;;;;;5134760;27;20023;-79
2022/01/26 11:52:24;;;;;;;21.20;15.07;;;17.50;53.90;;;;;;5116326;27;20033;-77
2022/01/26 11:54:53;;;;;;;21.02;16.65;;;17.50;54.30;;;;;;5134438;27;20455;-76
2022/01/26 11:57:22;;;;;;;21.02;13.88;;;17.50;54.50;;;;;;5133867;27;20461;-76
2022/01/26 12:00:11;;;;;;;15.90;11.95;;;17.60;54.00;;;;;;5115774;27;20019;-76
2022/01/26 12:05:09;;;;;;;15.60;11.07;;;17.60;53.60;;;;;;5134202;27;20042;-78
2022/01/26 12:07:45;;;;;;;15.52;10.48;;;17.70;53.40;;;;;;5131889;27;20503;-76
2022/01/26 12:10:18;;;;;;;13.82;10.18;;;17.80;53.00;;;;;;5133500;27;20023;-76
2022/01/26 12:12:44;;;;;;;13.77;10.32;;;17.80;53.00;;;;;;5134295;27;20020;-76
2022/01/26 12:15:15;;;;;;;15.15;10.73;;;17.90;52.90;;;;;;5134622;27;20023;-75
2022/01/26 12:18:01;;;;;;;16.50;9.60;;;17.90;52.70;;;;;;5133870;27;20084;-76
2022/01/26 12:43:02;;;;;;;11.13;7.60;;;18.30;52.30;;;;;;5133245;27;20536;-75
2022/01/26 12:45:06;;;;;;;12.10;8.68;;;18.40;52.30;;;;;;5124826;27;20047;-75
2022/01/26 12:47:32;;;;;;;12.68;7.90;;;18.40;52.40;;;;;;5132703;27;20031;-74
2022/01/26 12:49:59;;;;;;;10.10;7.93;;;18.50;52.30;;;;;;5133322;27;20062;-73
2022/01/26 12:52:25;;;;;;;11.10;7.57;;;18.50;52.30;;;;;;5133274;27;20029;-73
2022/01/26 12:54:50;;;;;;;10.48;8.15;;;18.50;52.30;;;;;;5134187;27;20055;-73
2022/01/26 12:57:16;;;;;;;10.23;7.32;;;18.50;52.10;;;;;;5132988;27;20479;-74
2022/01/26 12:59:43;;;;;;;11.05;7.60;;;18.50;52.10;;;;;;5133664;27;20482;-74
2022/01/26 13:02:09;;;;;;;11.15;7.88;;;18.50;52.10;;;;;;5133336;27;20023;-77
2022/01/26 13:04:36;;;;;;;10.80;7.75;;;18.50;52.10;;;;;;5133021;27;20042;-76
2022/01/26 13:07:04;;;;;;;9.43;6.53;;;18.50;52.00;;;;;;5133141;27;20094;-78
2022/01/26 13:09:41;;;;;;;9.88;6.22;;;18.60;52.10;;;;;;5118273;27;20028;-76
2022/01/26 13:12:09;;;;;;;13.70;7.20;;;18.60;52.00;;;;;;5112664;28;20028;-75
2022/01/26 13:14:47;;;;;;;10.27;7.35;;;18.60;51.80;;;;;;5112287;28;20110;-75
2022/01/26 13:30:45;;;;;;;9.65;6.93;;;18.80;51.50;;;;;;5133093;27;20110;-76
2022/01/26 13:36:00;;;;;;;13.20;6.32;;;18.80;51.30;;;;;;5132408;27;20023;-75
2022/01/26 13:46:29;;;;;;;7.40;5.45;;;19.00;50.90;;;;;;5120579;27;20027;-78
2022/01/26 13:59:23;;;;;;;9.18;5.63;;;19.40;50.10;;;;;;5115260;28;20472;-80
2022/01/26 14:01:50;;;;;;;7.90;5.07;;;19.50;49.70;;;;;;5114893;27;20024;-79
2022/01/26 14:04:18;;;;;;;9.70;6.25;;;19.50;49.90;;;;;;5111275;28;20043;-80
2022/01/26 14:06:45;;;;;;;6.63;5.40;;;19.40;50.00;;;;;;5131820;27;20035;-75
2022/01/26 14:09:11;;;;;;;10.02;5.55;;;19.20;50.60;;;;;;5113590;28;20118;-76
2022/01/26 14:11:37;;;;;;;8.32;6.30;;;19.10;50.30;;;;;;5132026;27;20121;-76
2022/01/26 14:14:03;;;;;;;7.85;5.82;;;19.00;50.30;;;;;;5113642;28;20077;-75
2022/01/26 14:16:36;;;;;;;9.23;6.43;;;19.00;50.40;;;;;;5131936;28;20030;-77
2022/01/26 14:22:06;;;;;;;11.00;6.05;;;18.90;50.40;;;;;;5115444;28;20020;-74
2022/01/26 14:24:34;;;;;;;9.35;6.10;;;18.80;50.60;;;;;;5115245;28;20040;-74
2022/01/26 14:27:04;;;;;;;7.70;5.25;;;18.70;50.60;;;;;;5115502;28;20024;-74
2022/01/26 14:39:31;;;;;;;8.55;6.53;;;18.50;50.70;;;;;;5115662;28;20019;-75
2022/01/26 15:33:49;;;;;;;7.10;4.95;;;17.30;51.60;;;;;;5118066;27;20065;-74
2022/01/26 15:50:15;;;;;;;7.65;5.15;;;17.00;52.20;;;;;;5125945;27;20577;-75
2022/01/26 16:16:38;;;;;;;10.32;5.80;;;16.70;52.50;;;;;;5113357;28;20026;-74
2022/01/26 16:37:48;;;;;;;9.15;5.90;;;16.50;52.50;;;;;;5112806;28;20062;-73
2022/01/26 17:02:20;;;;;;;8.63;6.00;;;16.50;52.70;;;;;;5133190;27;20067;-77
2022/01/26 17:03:03;;;;;;;8.43;6.18;;;16.70;52.80;;;;;;5123093;27;20061;-76
2022/01/26 17:24:24;;;;;;;8.68;5.30;;;17.60;55.50;;;;;;5111864;28;20084;-74
2022/01/26 18:31:44;;;;;;;5.53;4.40;;;19.10;54.00;;;;;;5120862;28;20037;-74
2022/01/26 18:32:28;;;;;;;7.72;4.45;;;;;;;;;;5119858;28;20505;-75
2022/01/26 18:51:09;;;;;;;5.65;4.20;;;19.50;52.60;;;;;;5121239;28;20096;-76
2022/01/26 18:53:35;;;;;;;7.03;4.15;;;19.50;52.50;;;;;;5131407;28;20466;-76
2022/01/26 18:56:00;;;;;;;5.95;4.22;;;19.50;52.30;;;;;;5131800;28;20098;-76
2022/01/26 18:58:26;;;;;;;5.88;4.40;;;19.50;52.30;;;;;;5129408;27;20423;-77
2022/01/26 19:00:51;;;;;;;5.05;3.97;;;19.50;52.20;;;;;;5119778;28;20061;-76
2022/01/26 19:03:18;;;;;;;7.05;4.85;;;19.50;52.10;;;;;;5118795;28;20023;-76
2022/01/26 19:05:45;;;;;;;7.30;4.32;;;19.60;52.10;;;;;;5113132;28;20043;-76
2022/01/26 19:08:10;;;;;;;6.28;4.03;;;19.70;52.00;;;;;;5114691;28;20089;-75
2022/01/26 19:10:36;;;;;;;6.07;4.20;;;19.70;51.80;;;;;;5114765;28;20127;-75
2022/01/26 19:13:02;;;;;;;6.82;4.57;;;19.70;51.80;;;;;;5122353;27;20047;-75
2022/01/26 19:15:31;;;;;;;6.25;4.40;;;19.70;51.70;;;;;;5124359;27;20137;-76
2022/01/26 19:18:09;;;;;;;6.75;4.63;;;19.70;51.60;;;;;;5123015;27;20011;-76
2022/01/26 19:20:52;;;;;;;6.47;4.75;;;19.70;51.50;;;;;;5122762;27;20479;-76
2022/01/26 19:25:55;;;;;;;5.78;4.30;;;19.70;51.40;;;;;;5123117;27;20380;-77
2022/01/26 19:28:27;;;;;;;7.05;5.05;;;19.80;51.90;;;;;;5123366;27;20098;-77
2022/01/26 19:52:10;;;;;;;5.25;3.70;;;20.00;51.00;;;;;;5135008;27;20137;-74
2022/01/26 19:54:39;;;;;;;5.78;4.43;;;20.00;51.10;;;;;;5134621;27;20428;-81
2022/01/26 19:57:05;;;;;;;7.30;4.07;;;20.00;50.90;;;;;;5134654;27;20019;-82
2022/01/26 19:59:31;;;;;;;6.72;4.45;;;20.00;50.90;;;;;;5134375;27;20033;-82